Hawk Run, PA (16840)

12:52 PM EDT on September 01, 2015 (GMT -0400)
South Philipsburg | | Change Station
CLOSE
Current Station
Personal Weather Station
Location: Philipsburg, PA
Elevation: 1444 ft
Nearby Weather Stations

Elev 1444 ft 40.89 °N, 78.22 °W | Updated 2 minutes ago

Partly Cloudy
Partly Cloudy
80.8 °F
Feels Like 84 °F
N
2.0
Wind Variable Wind from WSW
Gusts 2.0 mph

Today
High -- | Low -- °F
--% Chance of Precip.
Yesterday
High -- | Low -- °F
Precip. -- in
6:39 AM 7:45 PM
Waning Gibbous, 88% visible
Pressure 30.12 in
Visibility 10.0 miles
Clouds Scattered Clouds 3000 ft
Heat Index 84 °F
Dew Point 68 °F
Humidity 66%
Rainfall 0.00 in
Snow Depth Not available.
UV 7 out of 12
Pollen 10.20 out of 12
Air Quality Not available.
Flu Activity Not available.
METAR KFIG 011554Z AUTO 34006KT 10SM SCT030 27/18 A3015 RMK AO2 SLP200 T02670183
Pressure 30.12 in
Visibility 10.0 miles
Clouds Scattered Clouds 3000 ft
Heat Index 84 °F
Dew Point 68 °F
Humidity 66%
Rainfall 0.00 in
Snow Depth Not available.
UV 7 out of 12
Pollen 10.20 out of 12
Air Quality Not available.
Flu Activity Not available.
METAR KFIG 011554Z AUTO 34006KT 10SM SCT030 27/18 A3015 RMK AO2 SLP200 T02670183

10-Day Weather Forecast

×

Almanac

Astronomy

Sep. 01, 2015 Rise Set
Actual Time
Civil Twilight
Nautical Twilight
Astronomical Twilight
Moon
Length of Visible Light
Length of Day
Tomorrow will be .
, % of the Moon is Illuminated

Today's Extremes

State Highs State Lows

Community

WunderPhotos

Upload Photos

1,851,555 photos uploaded!

WunderBlogs® & News

Nearby

Air Quality

  Air Quality AQ Index Pollutant
Not available.

Snow Depth

Station Depth Elevation

Earthquake Activity

City Distance Mag. Time & Date
Minimum magnitude displayed is 2.5.

Coastal Water Temperatures

Place Temperature

Stations

Nearby Weather Stations

Station Location Temp. Windchill Dew Point Humidity Wind Precip. Elev Updated Type